createdAt,value
2018-01-26T00:01:43.375Z,10.93
2018-01-26T00:04:11.604Z,17.00
2018-01-26T00:06:40.621Z,11.00
2018-01-26T00:09:09.997Z,18.20
2018-01-26T00:11:39.360Z,10.23
2018-01-26T00:14:08.416Z,11.77
2018-01-26T00:16:36.651Z,11.87
2018-01-26T00:19:05.654Z,8.40
2018-01-26T00:21:35.275Z,11.20
2018-01-26T00:24:03.774Z,11.60
2018-01-26T00:26:33.512Z,9.50
2018-01-26T00:29:01.763Z,9.60
2018-01-26T00:31:29.980Z,7.70
2018-01-26T00:33:58.978Z,9.60
2018-01-26T00:36:27.242Z,10.00
2018-01-26T00:38:55.459Z,19.80
2018-01-26T00:41:25.035Z,12.87
2018-01-26T00:43:53.570Z,10.33
2018-01-26T00:46:21.828Z,13.57
2018-01-26T00:48:50.088Z,9.03
2018-01-26T00:51:19.860Z,12.03
2018-01-26T00:53:48.095Z,14.00
2018-01-26T00:56:16.312Z,9.80
2018-01-26T00:58:45.961Z,11.03
2018-01-26T01:01:14.828Z,11.43
2018-01-26T01:03:43.066Z,13.87
2018-01-26T01:06:12.679Z,13.67
2018-01-26T01:08:41.549Z,11.67
2018-01-26T01:11:11.135Z,17.50
2018-01-26T01:13:40.036Z,8.63
2018-01-26T01:16:09.432Z,8.97
2018-01-26T01:18:37.650Z,12.03
2018-01-26T01:21:05.902Z,11.20
2018-01-26T01:23:35.265Z,11.43
2018-01-26T01:26:03.487Z,10.73
2018-01-26T01:28:31.768Z,12.90
2018-01-26T01:30:59.995Z,11.20
2018-01-26T01:33:28.226Z,11.27
2018-01-26T01:35:56.484Z,8.97
2018-01-26T01:38:26.275Z,10.13
2018-01-26T01:40:54.477Z,14.33
2018-01-26T01:43:22.747Z,8.20
2018-01-26T01:45:53.034Z,11.33
2018-01-26T01:48:21.667Z,12.70
2018-01-26T01:50:50.351Z,13.53
2018-01-26T01:53:19.760Z,13.10
2018-01-26T01:55:49.348Z,11.30
2018-01-26T01:58:19.036Z,12.10
2018-01-26T02:00:47.260Z,14.83
2018-01-26T02:03:17.016Z,13.37
2018-01-26T02:05:45.320Z,10.60
2018-01-26T02:08:13.552Z,15.73
2018-01-26T02:10:41.771Z,11.03
2018-01-26T02:13:10.040Z,11.03
2018-01-26T02:15:38.283Z,13.50
2018-01-26T02:18:06.517Z,12.43
2018-01-26T02:20:34.775Z,13.30
2018-01-26T02:23:03.008Z,14.77
2018-01-26T02:25:41.539Z,12.10
2018-01-26T02:28:10.040Z,10.80
2018-01-26T02:30:39.403Z,10.40
2018-01-26T02:33:08.436Z,12.17
2018-01-26T02:35:36.683Z,14.70
2018-01-26T02:38:18.212Z,9.57
2018-01-26T02:40:51.297Z,12.13
2018-01-26T02:43:19.592Z,15.17
2018-01-26T02:45:48.973Z,11.80
2018-01-26T02:48:17.215Z,12.87
2018-01-26T02:50:45.472Z,16.53
2018-01-26T02:53:13.696Z,14.10
2018-01-26T02:55:41.931Z,11.50
2018-01-26T02:58:10.202Z,15.07
2018-01-26T03:00:38.436Z,17.07
2018-01-26T03:03:06.676Z,17.70
2018-01-26T03:05:35.155Z,13.83
2018-01-26T03:08:04.533Z,12.40
2018-01-26T03:10:32.756Z,11.57
2018-01-26T03:13:01.032Z,8.77
2018-01-26T03:15:29.251Z,11.90
2018-01-26T03:17:57.490Z,11.27
2018-01-26T03:20:26.156Z,15.30
2018-01-26T03:22:54.780Z,12.03
2018-01-26T03:25:23.007Z,14.97
2018-01-26T03:27:51.292Z,11.33
2018-01-26T03:30:19.542Z,14.43
2018-01-26T03:32:47.783Z,13.10
2018-01-26T03:35:16.132Z,16.37
2018-01-26T03:37:45.720Z,12.07
2018-01-26T03:40:13.834Z,16.57
2018-01-26T03:42:43.043Z,17.87
2018-01-26T03:45:12.627Z,12.47
2018-01-26T03:47:42.264Z,13.30
2018-01-26T03:50:11.871Z,17.17
2018-01-26T03:52:40.899Z,17.03
2018-01-26T03:55:10.295Z,12.33
2018-01-26T03:57:38.578Z,20.63
2018-01-26T04:00:07.583Z,18.93
2018-01-26T04:02:36.616Z,18.13
2018-01-26T04:05:04.846Z,12.07
2018-01-26T04:07:33.180Z,14.57
2018-01-26T04:10:01.462Z,13.07
2018-01-26T04:12:31.047Z,14.53
2018-01-26T04:14:59.156Z,19.43
2018-01-26T04:17:27.440Z,17.23
2018-01-26T04:19:55.665Z,13.40
2018-01-26T04:22:23.916Z,17.67
2018-01-26T04:24:52.190Z,15.20
2018-01-26T04:27:20.428Z,14.70
2018-01-26T04:29:48.679Z,12.10
2018-01-26T04:32:17.741Z,18.50
2018-01-26T04:34:46.728Z,10.90
2018-01-26T04:37:14.964Z,16.93
2018-01-26T04:39:43.988Z,12.37
2018-01-26T04:42:12.212Z,12.70
2018-01-26T04:44:40.435Z,14.40
2018-01-26T04:47:08.728Z,18.03
2018-01-26T04:49:36.974Z,12.13
2018-01-26T04:52:05.609Z,15.80
2018-01-26T04:54:34.659Z,13.93
2018-01-26T04:57:02.901Z,16.13
2018-01-26T04:59:31.906Z,16.70
2018-01-26T05:02:01.327Z,14.20
2018-01-26T05:04:29.571Z,15.50
2018-01-26T05:06:58.551Z,12.90
2018-01-26T05:09:27.963Z,14.63
2018-01-26T05:11:56.184Z,11.03
2018-01-26T05:14:24.830Z,12.87
2018-01-26T05:16:53.881Z,11.30
2018-01-26T05:19:22.891Z,14.80
2018-01-26T05:21:51.132Z,13.63
2018-01-26T05:24:20.206Z,13.50
2018-01-26T05:26:48.444Z,14.70
2018-01-26T05:29:16.676Z,15.13
2018-01-26T05:31:44.966Z,15.80
2018-01-26T05:34:14.561Z,20.87
2018-01-26T05:36:42.668Z,19.83
2018-01-26T05:39:10.923Z,13.80
2018-01-26T05:41:39.147Z,14.13
2018-01-26T05:44:08.746Z,16.67
2018-01-26T05:46:37.690Z,17.60
2018-01-26T05:49:07.297Z,16.53
2018-01-26T05:51:35.808Z,13.63
2018-01-26T05:54:05.575Z,18.60
2018-01-26T05:56:34.576Z,11.90
2018-01-26T05:59:02.808Z,12.27
2018-01-26T06:01:31.855Z,15.40
2018-01-26T06:04:00.083Z,18.50
2018-01-26T06:06:28.311Z,18.73
2018-01-26T06:08:56.581Z,16.40
2018-01-26T06:11:26.324Z,14.53
2018-01-26T06:13:54.556Z,17.00
2018-01-26T06:16:22.868Z,18.40
2018-01-26T06:18:51.493Z,16.40
2018-01-26T06:21:19.741Z,20.50
2018-01-26T06:23:49.367Z,16.77
2018-01-26T06:26:17.887Z,16.90
2018-01-26T06:28:46.120Z,13.67
2018-01-26T06:31:14.418Z,14.47
2018-01-26T06:33:43.999Z,13.47
2018-01-26T06:36:12.108Z,11.47
2018-01-26T06:38:40.372Z,17.53
2018-01-26T06:41:08.608Z,15.27
2018-01-26T06:43:36.860Z,19.43
2018-01-26T06:46:06.511Z,15.43
2018-01-26T06:48:35.748Z,15.10
2018-01-26T06:51:04.748Z,18.77
2018-01-26T06:53:34.182Z,14.17
2018-01-26T06:56:02.415Z,18.00
2018-01-26T06:58:30.643Z,13.67
2018-01-26T07:00:58.934Z,17.50
2018-01-26T07:03:27.175Z,16.77
2018-01-26T07:05:55.417Z,21.30
2018-01-26T07:08:23.716Z,20.80
2018-01-26T07:10:53.459Z,13.03
2018-01-26T07:13:21.740Z,14.90
2018-01-26T07:15:51.357Z,17.70
2018-01-26T07:18:20.252Z,17.00
2018-01-26T07:20:49.258Z,12.97
2018-01-26T07:23:17.528Z,19.87
2018-01-26T07:25:46.941Z,13.40
2018-01-26T07:28:16.490Z,20.60
2018-01-26T07:30:46.519Z,11.57
2018-01-26T07:33:16.107Z,15.57
2018-01-26T07:35:44.215Z,15.10
2018-01-26T07:38:12.504Z,19.47
2018-01-26T07:40:40.743Z,20.17
2018-01-26T07:43:08.967Z,15.50
2018-01-26T07:45:37.248Z,20.70
2018-01-26T07:48:07.000Z,19.90
2018-01-26T07:50:36.605Z,13.17
2018-01-26T07:53:05.521Z,20.87
2018-01-26T07:55:33.747Z,14.60
2018-01-26T07:58:03.116Z,17.83
2018-01-26T08:00:32.144Z,16.97
2018-01-26T08:03:01.140Z,14.90
2018-01-26T08:05:29.372Z,16.70
2018-01-26T08:07:57.647Z,13.63
2018-01-26T08:10:25.890Z,24.07
2018-01-26T08:12:54.140Z,16.43
2018-01-26T08:15:22.420Z,24.47
2018-01-26T08:17:51.796Z,22.17
2018-01-26T08:20:21.394Z,14.10
2018-01-26T08:22:49.949Z,18.50
2018-01-26T08:25:18.193Z,20.10
2018-01-26T08:27:47.187Z,24.53
2018-01-26T08:30:15.451Z,15.60
2018-01-26T08:32:43.675Z,16.47
2018-01-26T08:35:11.923Z,14.63
2018-01-26T08:37:41.577Z,18.63
2018-01-26T08:40:10.087Z,13.50
2018-01-26T08:42:38.316Z,16.27
2018-01-26T08:45:07.375Z,15.00
2018-01-26T08:47:36.395Z,25.53
2018-01-26T08:50:05.383Z,15.70
2018-01-26T08:52:33.656Z,11.10
2018-01-26T08:55:01.875Z,22.10
2018-01-26T08:57:30.103Z,12.77
2018-01-26T08:59:59.743Z,15.63
2018-01-26T09:02:27.847Z,22.47
2018-01-26T09:04:56.854Z,19.47
2018-01-26T09:07:26.247Z,13.20
2018-01-26T09:09:54.871Z,14.63
2018-01-26T09:12:23.120Z,13.60
2018-01-26T09:14:51.416Z,12.03
2018-01-26T09:17:21.304Z,17.90
2018-01-26T09:19:49.558Z,20.17
2018-01-26T09:22:17.837Z,17.70
2018-01-26T09:24:47.442Z,19.10
2018-01-26T09:27:16.903Z,14.20
2018-01-26T09:29:45.066Z,14.97
2018-01-26T09:32:13.297Z,15.63
2018-01-26T09:34:41.524Z,18.23
2018-01-26T09:37:09.779Z,11.10
2018-01-26T09:39:39.394Z,17.47
2018-01-26T09:42:08.254Z,16.57
2018-01-26T09:44:37.647Z,16.10
2018-01-26T09:47:05.888Z,15.43
2018-01-26T09:49:35.463Z,17.57
2018-01-26T09:52:05.136Z,16.17
2018-01-26T09:54:33.372Z,17.17
2018-01-26T09:57:02.955Z,17.63
2018-01-26T09:59:31.096Z,12.93
2018-01-26T10:01:59.323Z,17.90
2018-01-26T10:04:27.560Z,14.17
2018-01-26T10:06:55.827Z,23.03
2018-01-26T10:09:24.064Z,13.27
2018-01-26T10:11:53.661Z,16.33
2018-01-26T10:14:23.312Z,13.60
2018-01-26T10:16:51.549Z,16.97
2018-01-26T10:19:21.412Z,20.13
2018-01-26T10:21:51.031Z,20.83
2018-01-26T10:24:19.553Z,21.50
2018-01-26T10:26:47.800Z,15.90
2018-01-26T10:29:16.088Z,15.47
2018-01-26T10:31:44.334Z,13.13
2018-01-26T10:34:13.925Z,13.60
2018-01-26T10:36:42.470Z,12.40
2018-01-26T10:39:11.468Z,12.50
2018-01-26T10:41:40.840Z,19.10
2018-01-26T10:44:10.626Z,17.67
2018-01-26T10:46:39.619Z,13.00
2018-01-26T10:49:07.856Z,11.03
2018-01-26T10:51:36.901Z,14.00
2018-01-26T10:54:06.521Z,16.37
2018-01-26T10:56:34.984Z,12.30
2018-01-26T10:59:03.266Z,16.33
2018-01-26T11:01:31.510Z,15.17
2018-01-26T11:03:59.741Z,15.20
2018-01-26T11:06:29.527Z,18.77
2018-01-26T11:08:58.159Z,14.37
2018-01-26T11:11:26.390Z,12.83
2018-01-26T11:13:56.163Z,23.00
2018-01-26T11:16:24.414Z,17.00
2018-01-26T11:18:52.631Z,14.37
2018-01-26T11:21:22.801Z,13.70
2018-01-26T11:23:52.261Z,20.97
2018-01-26T11:26:20.364Z,14.07
2018-01-26T11:28:48.629Z,13.70
2018-01-26T11:31:16.887Z,12.70
2018-01-26T11:33:45.904Z,13.63
2018-01-26T11:36:15.521Z,13.30
2018-01-26T11:38:43.648Z,12.63
2018-01-26T11:41:13.042Z,17.50
2018-01-26T11:43:41.360Z,17.10
2018-01-26T11:46:09.595Z,15.27
2018-01-26T11:48:37.823Z,13.13
2018-01-26T11:51:06.107Z,14.00
2018-01-26T11:53:34.354Z,25.63
2018-01-26T11:56:02.602Z,15.90
2018-01-26T11:58:30.884Z,19.07
2018-01-26T12:01:00.255Z,15.90
2018-01-26T12:03:29.835Z,18.70
2018-01-26T12:05:57.976Z,15.67
2018-01-26T12:08:26.222Z,14.43
2018-01-26T12:10:54.452Z,19.80
2018-01-26T12:13:24.067Z,19.17
2018-01-26T12:15:52.576Z,18.03
2018-01-26T12:18:22.215Z,21.43
2018-01-26T12:20:50.704Z,20.87
2018-01-26T12:23:20.776Z,16.90
2018-01-26T12:25:49.188Z,12.67
2018-01-26T12:28:17.754Z,19.07
2018-01-26T12:30:46.287Z,17.53
2018-01-26T12:33:14.854Z,14.47
2018-01-26T12:35:44.208Z,13.10
2018-01-26T12:38:12.462Z,17.50
2018-01-26T12:40:40.692Z,17.53
2018-01-26T12:43:09.033Z,15.87
2018-01-26T12:45:38.755Z,16.77
2018-01-26T12:48:08.183Z,17.77
2018-01-26T12:50:37.855Z,16.60
2018-01-26T12:53:06.399Z,17.70
2018-01-26T12:55:35.431Z,16.27
2018-01-26T12:58:10.863Z,18.47
2018-01-26T13:00:39.082Z,18.60
2018-01-26T13:03:07.363Z,18.80
2018-01-26T13:05:35.693Z,22.43
2018-01-26T13:08:05.099Z,21.70
2018-01-26T13:10:33.375Z,24.80
2018-01-26T13:13:02.092Z,16.60
2018-01-26T13:15:31.736Z,17.10
2018-01-26T13:18:00.655Z,19.40
2018-01-26T13:20:30.315Z,20.73
2018-01-26T13:22:58.464Z,20.67
2018-01-26T13:25:28.203Z,23.90
2018-01-26T13:27:57.747Z,17.90
2018-01-26T13:30:27.031Z,17.63
2018-01-26T13:32:55.248Z,17.67
2018-01-26T13:35:24.283Z,20.17
2018-01-26T13:37:52.557Z,17.00
2018-01-26T13:40:20.830Z,18.37
2018-01-26T13:42:50.598Z,22.87
2018-01-26T13:45:19.223Z,17.70
2018-01-26T13:47:48.592Z,25.90
2018-01-26T13:50:16.872Z,14.93
2018-01-26T13:52:45.136Z,15.40
2018-01-26T13:55:13.399Z,14.70
2018-01-26T13:57:41.680Z,16.00
2018-01-26T14:00:09.912Z,17.90
2018-01-26T14:02:38.145Z,18.90
2018-01-26T14:05:07.762Z,18.40
2018-01-26T14:07:36.282Z,20.23
2018-01-26T14:10:04.922Z,16.40
2018-01-26T14:12:34.689Z,19.37
2018-01-26T14:15:04.055Z,20.73
2018-01-26T14:17:33.656Z,15.77
2018-01-26T14:20:02.216Z,22.80
2018-01-26T14:22:31.831Z,21.00
2018-01-26T14:25:01.287Z,19.17
2018-01-26T14:27:31.180Z,24.80
2018-01-26T14:29:59.422Z,19.00
2018-01-26T14:32:28.998Z,19.40
2018-01-26T14:34:57.157Z,20.03
2018-01-26T14:37:25.386Z,22.73
2018-01-26T14:39:53.611Z,19.47
2018-01-26T14:42:21.897Z,19.43
2018-01-26T14:44:50.136Z,19.57
2018-01-26T14:47:19.908Z,24.03
2018-01-26T14:49:48.193Z,27.90
2018-01-26T14:52:17.791Z,19.30
2018-01-26T14:54:46.676Z,16.57
2018-01-26T14:57:14.953Z,29.03
2018-01-26T14:59:43.193Z,21.83
2018-01-26T15:02:12.787Z,21.90
2018-01-26T15:04:42.080Z,19.07
2018-01-26T15:07:11.079Z,18.50
2018-01-26T15:09:39.330Z,17.03
2018-01-26T15:12:08.363Z,15.47
2018-01-26T15:14:36.600Z,20.67
2018-01-26T15:17:05.224Z,14.90
2018-01-26T15:19:33.507Z,15.43
2018-01-26T15:22:01.793Z,21.17
2018-01-26T15:24:30.017Z,18.27
2018-01-26T15:26:58.294Z,18.13
2018-01-26T15:29:28.064Z,14.03
2018-01-26T15:31:57.651Z,13.93
2018-01-26T15:34:26.571Z,17.13
2018-01-26T15:36:54.799Z,15.27
2018-01-26T15:39:23.919Z,19.30
2018-01-26T15:41:52.174Z,13.53
2018-01-26T15:44:21.491Z,16.20
2018-01-26T15:46:50.424Z,12.77
2018-01-26T15:49:21.433Z,20.07
2018-01-26T15:51:50.298Z,16.80
2018-01-26T15:54:18.595Z,16.50
2018-01-26T15:56:47.182Z,15.47
2018-01-26T15:59:16.797Z,14.90
2018-01-26T16:01:44.947Z,16.00
2018-01-26T16:04:13.255Z,18.47
2018-01-26T16:06:42.572Z,28.37
2018-01-26T16:09:11.588Z,17.47
2018-01-26T16:11:39.902Z,15.77
2018-01-26T16:14:09.313Z,17.47
2018-01-26T16:16:38.871Z,14.50
2018-01-26T16:19:08.405Z,13.33
2018-01-26T16:21:37.846Z,18.13
2018-01-26T16:24:05.956Z,21.27
2018-01-26T16:26:35.624Z,12.57
2018-01-26T16:29:04.158Z,15.63
2018-01-26T16:31:33.958Z,21.40
2018-01-26T16:34:03.058Z,11.50
2018-01-26T16:36:32.472Z,16.20
2018-01-26T16:39:00.742Z,19.47
2018-01-26T16:41:29.051Z,13.00
2018-01-26T16:43:57.341Z,18.17
2018-01-26T16:46:25.608Z,15.03
2018-01-26T16:48:53.874Z,16.93
2018-01-26T16:51:22.166Z,14.00
2018-01-26T16:53:50.435Z,18.70
2018-01-26T16:56:19.099Z,21.07
2018-01-26T16:58:47.383Z,19.63
2018-01-26T17:01:15.655Z,19.13
2018-01-26T17:03:44.719Z,22.87
2018-01-26T17:06:13.776Z,26.90
2018-01-26T17:08:43.356Z,26.40
2018-01-26T17:11:13.245Z,17.93
2018-01-26T17:13:42.897Z,22.23
2018-01-26T17:16:12.265Z,26.30
2018-01-26T17:18:40.536Z,25.60
2018-01-26T17:21:08.783Z,23.87
2018-01-26T17:23:37.403Z,18.20
2018-01-26T17:26:07.095Z,19.87
2018-01-26T17:28:35.206Z,25.13
2018-01-26T17:31:03.435Z,23.60
2018-01-26T17:33:33.183Z,19.33
2018-01-26T17:36:02.639Z,25.73
2018-01-26T17:38:31.143Z,23.03
2018-01-26T17:41:00.171Z,32.37
2018-01-26T17:43:28.485Z,19.80
2018-01-26T17:45:58.115Z,22.00
2018-01-26T17:48:27.919Z,17.63
2018-01-26T17:50:56.162Z,25.20
2018-01-26T17:53:25.903Z,19.70
2018-01-26T17:55:54.180Z,20.40
2018-01-26T17:58:22.465Z,21.30
2018-01-26T18:00:50.754Z,21.40
2018-01-26T18:03:19.056Z,19.67
2018-01-26T18:05:47.287Z,21.90
2018-01-26T18:08:15.521Z,22.00
2018-01-26T18:10:45.139Z,20.63
2018-01-26T18:13:13.299Z,20.87
2018-01-26T18:15:41.519Z,23.53
2018-01-26T18:18:09.810Z,21.77
2018-01-26T18:20:38.106Z,19.93
2018-01-26T18:23:07.092Z,24.00
2018-01-26T18:25:35.372Z,18.10
2018-01-26T18:28:05.115Z,20.00
2018-01-26T18:30:34.130Z,17.67
2018-01-26T18:33:03.583Z,22.07
2018-01-26T18:35:31.895Z,16.53
2018-01-26T18:38:00.518Z,18.30
2018-01-26T18:40:28.862Z,20.93
2018-01-26T18:42:57.142Z,17.97
2018-01-26T18:45:26.186Z,19.60
2018-01-26T18:47:54.515Z,20.50
2018-01-26T18:50:23.199Z,17.80
2018-01-26T18:52:51.481Z,17.53
2018-01-26T18:55:19.787Z,21.43
2018-01-26T18:57:49.571Z,19.80
2018-01-26T19:00:17.845Z,20.73
2018-01-26T19:02:46.157Z,16.90
2018-01-26T19:05:15.154Z,19.43
2018-01-26T19:07:44.147Z,30.13
2018-01-26T19:10:13.193Z,23.20
2018-01-26T19:12:41.475Z,21.93
2018-01-26T19:15:09.695Z,20.03
2018-01-26T19:17:39.517Z,19.27
2018-01-26T19:20:07.791Z,18.10
2018-01-26T19:22:36.059Z,21.83
2018-01-26T19:25:05.080Z,17.37
2018-01-26T19:27:34.145Z,22.13
2018-01-26T19:30:03.762Z,22.73
2018-01-26T19:32:33.103Z,17.73
2018-01-26T19:35:01.331Z,20.10
2018-01-26T19:37:29.597Z,23.97
2018-01-26T19:39:59.449Z,22.70
2018-01-26T19:42:29.091Z,22.33
2018-01-26T19:44:57.639Z,22.80
2018-01-26T19:47:25.978Z,19.03
2018-01-26T19:49:54.314Z,18.23
2018-01-26T19:52:24.261Z,22.23
2018-01-26T19:54:53.555Z,19.50
2018-01-26T19:57:21.818Z,18.97
2018-01-26T19:59:51.536Z,18.87
2018-01-26T20:02:21.239Z,20.43
2018-01-26T20:05:07.935Z,23.97
2018-01-26T20:07:42.462Z,19.53
2018-01-26T20:10:12.123Z,22.07
2018-01-26T20:12:46.068Z,28.47
2018-01-26T20:15:15.430Z,24.03
2018-01-26T20:17:44.792Z,24.87
2018-01-26T20:20:13.137Z,26.13
2018-01-26T20:22:41.405Z,26.63
2018-01-26T20:25:09.703Z,19.97
2018-01-26T20:27:39.363Z,22.17
2018-01-26T20:30:07.899Z,18.17
2018-01-26T20:32:36.898Z,21.00
2018-01-26T20:35:05.219Z,19.63
2018-01-26T20:37:34.063Z,25.00
2018-01-26T20:40:03.649Z,22.13
2018-01-26T20:42:32.826Z,24.33
2018-01-26T20:45:02.450Z,21.73
2018-01-26T20:47:30.594Z,26.20
2018-01-26T20:49:59.659Z,24.13
2018-01-26T20:52:27.891Z,25.93
2018-01-26T20:54:56.142Z,33.80
2018-01-26T20:57:25.815Z,24.87
2018-01-26T20:59:54.741Z,22.67
2018-01-26T21:02:23.423Z,22.50
2018-01-26T21:04:53.893Z,26.40
2018-01-26T21:07:23.577Z,25.83
2018-01-26T21:09:52.648Z,26.57
2018-01-26T21:12:22.369Z,28.30
2018-01-26T21:14:50.851Z,26.00
2018-01-26T21:17:20.434Z,30.17
2018-01-26T21:19:48.984Z,26.30
2018-01-26T21:22:17.207Z,32.80
2018-01-26T21:24:46.259Z,28.93
2018-01-26T21:27:15.327Z,25.40
2018-01-26T21:29:43.611Z,43.17
2018-01-26T21:32:11.835Z,31.90
2018-01-26T21:34:40.111Z,27.13
2018-01-26T21:37:10.374Z,26.93
2018-01-26T21:39:38.685Z,29.80
2018-01-26T21:42:06.979Z,30.37
2018-01-26T21:44:36.580Z,26.87
2018-01-26T21:47:05.131Z,23.83
2018-01-26T21:49:34.528Z,27.47
2018-01-26T21:52:03.579Z,34.07
2018-01-26T21:54:32.607Z,34.53
2018-01-26T21:57:00.921Z,32.63
2018-01-26T21:59:29.187Z,24.90
2018-01-26T22:01:58.974Z,29.53
2018-01-26T22:04:32.949Z,24.97
2018-01-26T22:07:06.823Z,40.77
2018-01-26T22:09:36.470Z,31.10
2018-01-26T22:12:05.375Z,32.50
2018-01-26T22:14:34.398Z,30.60
2018-01-26T22:17:04.058Z,28.07
2018-01-26T22:19:33.553Z,29.33
2018-01-26T22:22:02.475Z,35.83
2018-01-26T22:24:31.598Z,36.70
2018-01-26T22:26:59.870Z,34.00
2018-01-26T22:29:28.110Z,26.17
2018-01-26T22:31:57.205Z,52.47
2018-01-26T22:34:25.871Z,58.43
2018-01-26T22:36:55.495Z,74.70
2018-01-26T22:39:24.839Z,39.17
2018-01-26T22:41:54.512Z,33.47
2018-01-26T22:44:23.061Z,28.30
2018-01-26T22:46:51.698Z,29.23
2018-01-26T22:49:21.341Z,25.27
2018-01-26T22:51:50.867Z,31.37
2018-01-26T22:54:20.386Z,38.97
2018-01-26T22:56:49.831Z,37.07
2018-01-26T23:01:54.531Z,34.40
2018-01-26T23:04:22.699Z,33.13
2018-01-26T23:06:50.963Z,39.70
2018-01-26T23:09:20.041Z,30.60
2018-01-26T23:11:49.061Z,26.23
2018-01-26T23:14:18.048Z,35.73
2018-01-26T23:16:46.328Z,26.00
2018-01-26T23:19:14.629Z,30.33
2018-01-26T23:21:42.847Z,30.40
2018-01-26T23:24:11.163Z,28.87
2018-01-26T23:26:40.306Z,29.63
2018-01-26T23:29:08.911Z,30.73
2018-01-26T23:31:37.990Z,32.30
2018-01-26T23:34:06.269Z,29.97
2018-01-26T23:36:35.286Z,33.53
2018-01-26T23:39:03.540Z,31.93
2018-01-26T23:41:31.768Z,32.57
2018-01-26T23:44:00.041Z,34.47
2018-01-26T23:46:28.311Z,36.27
2018-01-26T23:48:56.543Z,34.63
2018-01-26T23:51:24.835Z,31.33
2018-01-26T23:53:53.122Z,30.47
2018-01-26T23:56:22.734Z,32.30
2018-01-26T23:58:52.360Z,30.60
